createdAt,value
2023-02-20T06:19:00.215Z,1007.32
2023-02-20T06:20:01.134Z,1007.32
2023-02-20T06:21:03.144Z,1007.29
2023-02-20T06:22:05.167Z,1007.36
2023-02-20T06:23:07.178Z,1007.36
2023-02-20T06:24:09.238Z,1007.35
2023-02-20T06:25:11.937Z,1007.38
2023-02-20T06:26:12.961Z,1007.35
2023-02-20T06:27:14.052Z,1007.33
2023-02-20T06:28:16.088Z,1007.31
2023-02-20T06:29:18.096Z,1007.28
2023-02-20T06:30:20.191Z,1007.26
2023-02-20T06:31:22.229Z,1007.28
2023-02-20T06:32:24.331Z,1007.20
2023-02-20T06:33:26.342Z,1007.16
2023-02-20T06:34:28.350Z,1007.05
2023-02-20T06:35:30.375Z,1007.09
2023-02-20T06:36:32.390Z,1007.06
2023-02-20T06:37:34.415Z,1006.96
2023-02-20T06:38:36.425Z,1007.01
2023-02-20T06:39:38.457Z,1007.00
2023-02-20T06:40:40.493Z,1007.03
2023-02-20T06:41:42.491Z,1007.08
2023-02-20T06:42:44.528Z,1007.07
2023-02-20T06:43:46.557Z,1007.04
2023-02-20T06:44:48.587Z,1007.06
2023-02-20T06:45:50.604Z,1007.11
2023-02-20T06:46:52.646Z,1007.09
2023-02-20T06:47:54.671Z,1007.07
2023-02-20T06:48:56.740Z,1007.12
2023-02-20T06:49:58.739Z,1007.13
2023-02-20T06:51:00.745Z,1007.14
2023-02-20T06:52:04.300Z,1007.17
2023-02-20T06:53:04.201Z,1007.18
2023-02-20T06:54:06.227Z,1007.19
2023-02-20T06:55:08.243Z,1007.26
2023-02-20T06:56:10.658Z,1007.24
2023-02-20T06:57:11.731Z,1007.33
2023-02-20T06:58:13.777Z,1007.29
2023-02-20T06:59:15.804Z,1007.24
2023-02-20T07:00:17.821Z,1007.25
2023-02-20T07:01:19.830Z,1007.17
2023-02-20T07:02:21.903Z,1007.11
2023-02-20T07:03:23.911Z,1007.09
2023-02-20T07:04:27.635Z,1007.03
2023-02-20T07:05:27.743Z,1006.97
2023-02-20T07:06:29.749Z,1007.05
2023-02-20T07:07:31.741Z,1007.01
2023-02-20T07:08:33.785Z,1007.04
2023-02-20T07:09:35.797Z,1007.01
2023-02-20T07:10:37.810Z,1007.02
2023-02-20T07:11:39.819Z,1006.96
2023-02-20T07:12:41.837Z,1006.97
2023-02-20T07:13:43.896Z,1007.00
2023-02-20T07:14:45.909Z,1007.13
2023-02-20T07:15:47.946Z,1007.17
2023-02-20T07:16:49.943Z,1007.19
2023-02-20T07:17:51.958Z,1007.14
2023-02-20T07:18:53.980Z,1007.20
2023-02-20T07:19:55.983Z,1007.16
2023-02-20T07:20:57.986Z,1007.04
2023-02-20T07:22:00.008Z,1007.03
2023-02-20T07:23:02.044Z,1006.97
2023-02-20T07:24:04.079Z,1006.91
2023-02-20T07:25:06.078Z,1006.97
2023-02-20T07:26:08.085Z,1006.94
2023-02-20T07:27:10.098Z,1006.90
2023-02-20T07:28:12.110Z,1006.94
2023-02-20T07:29:14.139Z,1006.94
2023-02-20T07:30:25.584Z,1006.96
2023-02-20T07:31:17.715Z,1006.93
2023-02-20T07:32:19.799Z,1006.81
2023-02-20T07:33:21.796Z,1006.85
2023-02-20T07:34:23.832Z,1006.90
2023-02-20T07:35:25.842Z,1006.81
2023-02-20T07:36:27.856Z,1006.75
2023-02-20T07:37:29.857Z,1006.84
2023-02-20T07:38:31.899Z,1006.76
2023-02-20T07:39:33.937Z,1006.84
2023-02-20T07:40:37.816Z,1006.84
2023-02-20T07:41:37.588Z,1006.80
2023-02-20T07:42:39.600Z,1006.80
2023-02-20T07:43:41.608Z,1006.75
2023-02-20T07:44:43.627Z,1006.72
2023-02-20T07:45:45.689Z,1006.77
2023-02-20T07:46:47.673Z,1006.79
2023-02-20T07:47:49.703Z,1006.81
2023-02-20T07:48:51.737Z,1006.70
2023-02-20T07:49:53.753Z,1006.63
2023-02-20T07:50:55.780Z,1006.57
2023-02-20T07:51:57.816Z,1006.56
2023-02-20T07:52:59.840Z,1006.59
2023-02-20T07:54:01.872Z,1006.64
2023-02-20T07:55:03.876Z,1006.58
2023-02-20T07:56:05.884Z,1006.44
2023-02-20T07:57:07.893Z,1006.47
2023-02-20T07:58:09.907Z,1006.41
2023-02-20T07:59:11.915Z,1006.39
2023-02-20T08:00:13.982Z,1006.35
2023-02-20T08:01:16.043Z,1006.25
2023-02-20T08:02:18.028Z,1006.30
2023-02-20T08:03:20.039Z,1006.26
2023-02-20T08:04:22.055Z,1006.26
2023-02-20T08:05:24.095Z,1006.18
2023-02-20T08:06:26.097Z,1006.18
2023-02-20T08:07:28.122Z,1006.18
2023-02-20T08:08:30.148Z,1006.16
2023-02-20T08:09:32.177Z,1006.17
2023-02-20T08:10:34.274Z,1006.22
2023-02-20T08:11:36.268Z,1006.20
2023-02-20T08:12:38.270Z,1006.27
2023-02-20T08:13:40.376Z,1006.19
2023-02-20T08:14:42.385Z,1006.21
2023-02-20T08:15:44.405Z,1006.17
2023-02-20T08:16:46.452Z,1006.15
2023-02-20T08:17:49.518Z,1006.19
2023-02-20T08:18:50.235Z,1006.17
2023-02-20T08:19:51.184Z,1006.19
2023-02-20T08:20:53.250Z,1006.20
2023-02-20T08:21:55.276Z,1006.16
2023-02-20T08:22:57.308Z,1006.21
2023-02-20T08:23:59.321Z,1006.11
2023-02-20T08:25:01.343Z,1006.08
2023-02-20T08:26:03.378Z,1006.10
2023-02-20T08:27:04.522Z,1006.02
2023-02-20T08:28:06.531Z,1006.07
2023-02-20T08:29:08.546Z,1006.07
2023-02-20T08:30:10.656Z,1006.06
2023-02-20T08:31:23.005Z,1006.02
2023-02-20T08:32:15.352Z,1006.01
2023-02-20T08:33:15.287Z,1006.02
2023-02-20T08:34:17.309Z,1005.93
2023-02-20T08:35:19.337Z,1006.03
2023-02-20T08:36:21.368Z,1006.00
2023-02-20T08:37:23.399Z,1006.03
2023-02-20T08:38:25.418Z,1006.03
2023-02-20T08:39:27.472Z,1006.04
2023-02-20T08:40:29.503Z,1006.05
2023-02-20T08:41:31.552Z,1005.97
2023-02-20T08:42:33.566Z,1006.05
2023-02-20T08:43:35.587Z,1005.99
2023-02-20T08:44:37.616Z,1005.96
2023-02-20T08:45:39.642Z,1005.94
2023-02-20T08:46:41.672Z,1005.94
2023-02-20T08:47:43.678Z,1005.99
2023-02-20T08:48:45.682Z,1005.93
2023-02-20T08:49:47.694Z,1005.97
2023-02-20T08:50:49.721Z,1005.96
2023-02-20T08:51:51.720Z,1005.91
2023-02-20T08:52:53.730Z,1005.89
2023-02-20T08:53:55.744Z,1005.86
2023-02-20T08:54:57.749Z,1005.87
2023-02-20T08:55:59.754Z,1005.90
2023-02-20T08:57:01.809Z,1005.91
2023-02-20T08:58:03.808Z,1005.86
2023-02-20T08:59:05.819Z,1005.91
2023-02-20T09:00:07.995Z,1005.93
2023-02-20T09:01:10.020Z,1005.90
2023-02-20T09:02:12.080Z,1005.86
2023-02-20T09:03:14.092Z,1005.95
2023-02-20T09:04:16.101Z,1005.93
2023-02-20T09:05:18.109Z,1005.91
2023-02-20T09:06:20.145Z,1005.99
2023-02-20T09:07:22.153Z,1006.00
2023-02-20T09:08:24.167Z,1006.00
2023-02-20T09:09:26.219Z,1005.99
2023-02-20T09:10:28.324Z,1005.97
2023-02-20T09:11:30.464Z,1005.98
2023-02-20T09:12:31.654Z,1005.91
2023-02-20T09:13:33.705Z,1005.93
2023-02-20T09:14:35.746Z,1005.95
2023-02-20T09:15:37.810Z,1005.94
2023-02-20T09:16:39.877Z,1005.93
2023-02-20T09:17:41.932Z,1005.91
2023-02-20T09:18:43.954Z,1005.90
2023-02-20T09:19:45.966Z,1005.92
2023-02-20T09:20:48.006Z,1005.93
2023-02-20T09:21:50.035Z,1005.88
2023-02-20T09:22:52.059Z,1005.90
2023-02-20T09:23:54.084Z,1005.88
2023-02-20T09:24:56.107Z,1005.92
2023-02-20T09:25:58.148Z,1005.91
2023-02-20T09:27:00.181Z,1005.86
2023-02-20T09:28:02.214Z,1005.93
2023-02-20T09:29:04.229Z,1005.94
2023-02-20T09:30:06.308Z,1005.87
2023-02-20T09:31:08.346Z,1005.83
2023-02-20T09:32:10.498Z,1005.85
2023-02-20T09:33:12.597Z,1005.89
2023-02-20T09:34:14.632Z,1005.90
2023-02-20T09:35:16.646Z,1005.96
2023-02-20T09:36:18.671Z,1005.92
2023-02-20T09:37:20.718Z,1005.93
2023-02-20T09:38:22.762Z,1005.88
2023-02-20T09:39:24.798Z,1005.90
2023-02-20T09:40:26.818Z,1005.86
2023-02-20T09:41:28.864Z,1005.90
2023-02-20T09:42:30.858Z,1005.85
2023-02-20T09:43:32.889Z,1005.76
2023-02-20T09:44:34.898Z,1005.87
2023-02-20T09:45:36.970Z,1005.91
2023-02-20T09:46:39.001Z,1005.86
2023-02-20T09:47:41.054Z,1005.86
2023-02-20T09:48:43.093Z,1005.91
2023-02-20T09:49:45.133Z,1005.88
2023-02-20T09:50:47.151Z,1005.88
2023-02-20T09:51:49.172Z,1005.89
2023-02-20T09:52:51.203Z,1005.80
2023-02-20T09:53:53.232Z,1005.75
2023-02-20T09:54:55.279Z,1005.78
2023-02-20T09:55:57.321Z,1005.76
2023-02-20T09:56:59.344Z,1005.80
2023-02-20T09:58:01.375Z,1005.79
2023-02-20T09:59:03.430Z,1005.83
2023-02-20T10:00:06.692Z,1005.88
2023-02-20T10:01:06.582Z,1005.80
2023-02-20T10:02:08.717Z,1005.73
2023-02-20T10:03:10.935Z,1005.78
2023-02-20T10:04:11.966Z,1005.68
2023-02-20T10:05:13.991Z,1005.78
2023-02-20T10:06:16.339Z,1005.75
2023-02-20T10:07:17.460Z,1005.62
2023-02-20T10:08:18.359Z,1005.64
2023-02-20T10:09:20.376Z,1005.61
2023-02-20T10:10:22.434Z,1005.65
2023-02-20T10:11:24.463Z,1005.62
2023-02-20T10:12:26.487Z,1005.58
2023-02-20T10:13:28.527Z,1005.48
2023-02-20T10:14:30.557Z,1005.50
2023-02-20T10:15:32.600Z,1005.46
2023-02-20T10:16:34.655Z,1005.46
2023-02-20T10:17:36.670Z,1005.36
2023-02-20T10:18:38.691Z,1005.40
2023-02-20T10:19:40.748Z,1005.27
2023-02-20T10:20:42.798Z,1005.27
2023-02-20T10:21:44.815Z,1005.35
2023-02-20T10:22:46.834Z,1005.19
2023-02-20T10:23:56.696Z,1005.29
2023-02-20T10:24:50.312Z,1005.08
2023-02-20T10:25:52.346Z,1005.18
2023-02-20T10:26:54.387Z,1005.13
2023-02-20T10:27:56.431Z,1005.17
2023-02-20T10:28:58.475Z,1005.03
2023-02-20T10:30:00.477Z,1005.02
2023-02-20T10:31:02.536Z,1004.91
2023-02-20T10:32:04.632Z,1004.85
2023-02-20T10:33:06.618Z,1004.87
2023-02-20T10:34:08.666Z,1004.89
2023-02-20T10:35:10.713Z,1004.84
2023-02-20T10:36:13.069Z,1004.81
2023-02-20T10:37:14.082Z,1004.77
2023-02-20T10:38:16.150Z,1004.77
2023-02-20T10:39:18.177Z,1004.63
2023-02-20T10:40:20.193Z,1004.62
2023-02-20T10:41:22.229Z,1004.59
2023-02-20T10:42:24.277Z,1004.54
2023-02-20T10:43:26.278Z,1004.47
2023-02-20T10:44:28.319Z,1004.53
2023-02-20T10:45:30.402Z,1004.47
2023-02-20T10:46:47.641Z,1004.45
2023-02-20T10:47:33.889Z,1004.51
2023-02-20T10:48:35.921Z,1004.59
2023-02-20T10:49:37.986Z,1004.64
2023-02-20T10:50:40.081Z,1004.68
2023-02-20T10:51:42.129Z,1004.60
2023-02-20T10:52:44.164Z,1004.56
2023-02-20T10:53:46.190Z,1004.74
2023-02-20T10:54:48.224Z,1004.68
2023-02-20T10:55:50.278Z,1004.60
2023-02-20T10:56:52.295Z,1004.60
2023-02-20T10:57:54.310Z,1004.57
2023-02-20T10:58:56.355Z,1004.50
2023-02-20T10:59:58.374Z,1004.50
2023-02-20T11:01:00.439Z,1004.57
2023-02-20T11:02:02.512Z,1004.60
2023-02-20T11:03:04.512Z,1004.58
2023-02-20T11:04:06.647Z,1004.58
2023-02-20T11:05:08.703Z,1004.64
2023-02-20T11:06:10.940Z,1004.55
2023-02-20T11:07:11.983Z,1004.59
2023-02-20T11:08:14.035Z,1004.53
2023-02-20T11:09:16.034Z,1004.53
2023-02-20T11:10:18.071Z,1004.52
2023-02-20T11:11:20.157Z,1004.48
2023-02-20T11:12:22.269Z,1004.39
2023-02-20T11:13:24.314Z,1004.34
2023-02-20T11:14:38.997Z,1004.36
2023-02-20T11:15:27.823Z,1004.34
2023-02-20T11:16:29.868Z,1004.31
2023-02-20T11:17:31.889Z,1004.28
2023-02-20T11:18:33.919Z,1004.33
2023-02-20T11:19:35.964Z,1004.32
2023-02-20T11:20:38.030Z,1004.26
2023-02-20T11:21:40.095Z,1004.25
2023-02-20T11:22:42.128Z,1004.19
2023-02-20T11:23:44.157Z,1004.25
2023-02-20T11:24:46.207Z,1004.06
2023-02-20T11:25:48.251Z,1004.17
2023-02-20T11:26:50.334Z,1004.15
2023-02-20T11:27:52.353Z,1004.08
2023-02-20T11:28:54.392Z,1004.09
2023-02-20T11:29:56.403Z,1003.91
2023-02-20T11:30:58.505Z,1003.91
2023-02-20T11:32:00.585Z,1003.91
2023-02-20T11:33:02.608Z,1003.86
2023-02-20T11:34:04.627Z,1003.84
2023-02-20T11:35:06.663Z,1003.67
2023-02-20T11:36:08.706Z,1003.79
2023-02-20T11:37:10.737Z,1003.72
2023-02-20T11:38:12.742Z,1003.65
2023-02-20T11:39:14.761Z,1003.64
2023-02-20T11:40:16.800Z,1003.61
2023-02-20T11:41:18.841Z,1003.46
2023-02-20T11:42:20.924Z,1003.50
2023-02-20T11:43:22.933Z,1003.50
2023-02-20T11:44:24.945Z,1003.49
2023-02-20T11:45:26.999Z,1003.44
2023-02-20T11:46:29.074Z,1003.48
2023-02-20T11:47:31.105Z,1003.45
2023-02-20T11:48:33.139Z,1003.32
2023-02-20T11:49:35.393Z,1003.37
2023-02-20T11:50:36.431Z,1003.40
2023-02-20T11:51:38.501Z,1003.31
2023-02-20T11:52:40.660Z,1003.27
2023-02-20T11:53:42.741Z,1003.42
2023-02-20T11:54:44.791Z,1003.30
2023-02-20T11:55:58.683Z,1003.29
2023-02-20T11:56:48.335Z,1003.29
2023-02-20T11:57:50.395Z,1003.32
2023-02-20T11:58:52.408Z,1003.39
2023-02-20T11:59:54.442Z,1003.30
2023-02-20T12:00:56.489Z,1003.35
2023-02-20T12:02:01.155Z,1003.28
2023-02-20T12:03:00.032Z,1003.24
2023-02-20T12:04:02.126Z,1003.31
2023-02-20T12:05:03.200Z,1003.30
2023-02-20T12:06:05.247Z,1003.22
2023-02-20T12:07:07.247Z,1003.26
2023-02-20T12:08:09.322Z,1003.23
2023-02-20T12:09:11.365Z,1003.19
2023-02-20T12:10:13.384Z,1003.13
2023-02-20T12:11:15.425Z,1003.23
2023-02-20T12:12:17.481Z,1003.20
2023-02-20T12:13:19.541Z,1003.22
2023-02-20T12:14:21.569Z,1003.20
2023-02-20T12:15:23.604Z,1003.22
2023-02-20T12:16:25.678Z,1003.18
2023-02-20T12:17:27.672Z,1003.16
2023-02-20T12:18:29.721Z,1003.17
2023-02-20T12:19:31.768Z,1003.23
2023-02-20T12:20:33.804Z,1003.21
2023-02-20T12:21:35.823Z,1003.25
2023-02-20T12:22:37.847Z,1003.13
2023-02-20T12:23:39.891Z,1003.14
2023-02-20T12:24:41.933Z,1003.16
2023-02-20T12:25:43.966Z,1003.14
2023-02-20T12:26:46.030Z,1003.12
2023-02-20T12:27:48.597Z,1003.12
2023-02-20T12:28:49.529Z,1003.14
2023-02-20T12:29:51.553Z,1003.04
2023-02-20T12:30:53.617Z,1003.02
2023-02-20T12:31:55.844Z,1003.06
2023-02-20T12:32:56.823Z,1003.07
2023-02-20T12:33:58.875Z,1002.99
2023-02-20T12:35:00.918Z,1003.02
2023-02-20T12:36:02.962Z,1003.00
2023-02-20T12:37:15.499Z,1003.02
2023-02-20T12:38:06.534Z,1003.06
2023-02-20T12:39:08.582Z,1003.17
2023-02-20T12:40:10.608Z,1003.00
2023-02-20T12:41:12.642Z,1003.04
2023-02-20T12:42:14.697Z,1003.05
2023-02-20T12:43:16.741Z,1003.04
2023-02-20T12:44:18.787Z,1003.09
2023-02-20T12:45:20.822Z,1003.08
2023-02-20T12:46:23.003Z,1003.05
2023-02-20T12:47:23.953Z,1003.05
2023-02-20T12:48:25.973Z,1002.99
2023-02-20T12:49:27.999Z,1003.05
2023-02-20T12:50:30.058Z,1003.00
2023-02-20T12:51:32.066Z,1003.03
2023-02-20T12:52:34.107Z,1002.97
2023-02-20T12:53:36.146Z,1002.89
2023-02-20T12:54:38.170Z,1002.96
2023-02-20T12:55:40.192Z,1002.91
2023-02-20T12:56:42.235Z,1002.92
2023-02-20T12:57:44.278Z,1002.89
2023-02-20T12:58:46.325Z,1002.87
2023-02-20T12:59:48.358Z,1002.88
2023-02-20T13:00:50.439Z,1002.97
2023-02-20T13:01:52.439Z,1002.80
2023-02-20T13:02:54.461Z,1002.87
2023-02-20T13:03:56.557Z,1002.92
2023-02-20T13:04:58.564Z,1002.79
2023-02-20T13:06:00.692Z,1002.81
2023-02-20T13:07:02.753Z,1002.85
2023-02-20T13:08:04.792Z,1002.83
2023-02-20T13:09:06.817Z,1002.83
2023-02-20T13:10:08.879Z,1002.85
2023-02-20T13:11:10.891Z,1002.82
2023-02-20T13:12:12.922Z,1002.85
2023-02-20T13:13:14.962Z,1002.80
2023-02-20T13:14:17.004Z,1002.86
2023-02-20T13:15:19.053Z,1002.83
2023-02-20T13:16:21.125Z,1002.78
2023-02-20T13:17:23.119Z,1002.79
2023-02-20T13:18:25.121Z,1002.77
2023-02-20T13:19:27.140Z,1002.70
2023-02-20T13:20:29.158Z,1002.80
2023-02-20T13:21:31.204Z,1002.71
2023-02-20T13:22:33.250Z,1002.76
2023-02-20T13:23:35.306Z,1002.70
2023-02-20T13:24:37.344Z,1002.69
2023-02-20T13:25:39.447Z,1002.74
2023-02-20T13:26:41.504Z,1002.75
2023-02-20T13:27:43.527Z,1002.72
2023-02-20T13:28:45.563Z,1002.67
2023-02-20T13:29:47.592Z,1002.68
2023-02-20T13:30:49.626Z,1002.67
2023-02-20T13:31:51.843Z,1002.60
2023-02-20T13:32:52.789Z,1002.53
2023-02-20T13:33:54.820Z,1002.64
2023-02-20T13:34:56.836Z,1002.70
2023-02-20T13:35:58.886Z,1002.65
2023-02-20T13:37:00.914Z,1002.69
2023-02-20T13:38:02.926Z,1002.65
2023-02-20T13:39:04.949Z,1002.66
2023-02-20T13:40:06.969Z,1002.65
2023-02-20T13:41:09.046Z,1002.54
2023-02-20T13:42:11.190Z,1002.54
2023-02-20T13:43:13.204Z,1002.59
2023-02-20T13:44:15.244Z,1002.57
2023-02-20T13:45:17.278Z,1002.51
2023-02-20T13:46:19.329Z,1002.53
2023-02-20T13:47:27.695Z,1002.44
2023-02-20T13:48:23.555Z,1002.56
2023-02-20T13:49:25.576Z,1002.56
2023-02-20T13:50:27.615Z,1002.57
2023-02-20T13:51:30.614Z,1002.46
2023-02-20T13:52:31.514Z,1002.54
2023-02-20T13:53:33.583Z,1002.43
2023-02-20T13:54:35.596Z,1002.39
2023-02-20T13:55:37.638Z,1002.44
2023-02-20T13:56:39.685Z,1002.48
2023-02-20T13:57:41.730Z,1002.44
2023-02-20T13:58:43.772Z,1002.36
2023-02-20T13:59:45.817Z,1002.54
2023-02-20T14:00:47.905Z,1002.43
2023-02-20T14:01:49.916Z,1002.46
2023-02-20T14:02:51.933Z,1002.48
2023-02-20T14:03:53.990Z,1002.42
2023-02-20T14:04:56.059Z,1002.54
2023-02-20T14:05:58.106Z,1002.51
2023-02-20T14:07:00.152Z,1002.60
2023-02-20T14:08:02.254Z,1002.52
2023-02-20T14:09:04.287Z,1002.49
2023-02-20T14:10:06.311Z,1002.51
2023-02-20T14:11:08.324Z,1002.52
2023-02-20T14:12:10.386Z,1002.49
2023-02-20T14:13:12.431Z,1002.55
2023-02-20T14:14:14.447Z,1002.64
2023-02-20T14:15:16.486Z,1002.64
2023-02-20T14:16:18.528Z,1002.75
2023-02-20T14:17:20.547Z,1002.71
2023-02-20T14:18:22.578Z,1002.75
2023-02-20T14:19:24.628Z,1002.76
2023-02-20T14:20:26.647Z,1002.76
2023-02-20T14:21:28.683Z,1002.70
2023-02-20T14:22:30.735Z,1002.63
2023-02-20T14:23:32.785Z,1002.63
2023-02-20T14:24:34.807Z,1002.51
2023-02-20T14:25:36.840Z,1002.46
2023-02-20T14:26:38.862Z,1002.54
2023-02-20T14:27:40.876Z,1002.56
2023-02-20T14:28:42.920Z,1002.58
2023-02-20T14:29:44.938Z,1002.56
2023-02-20T14:30:46.959Z,1002.50
2023-02-20T14:31:49.019Z,1002.55
2023-02-20T14:32:51.106Z,1002.50
2023-02-20T14:33:53.110Z,1002.45
2023-02-20T14:34:55.143Z,1002.39
2023-02-20T14:35:57.176Z,1002.42
2023-02-20T14:36:59.218Z,1002.30
2023-02-20T14:38:01.268Z,1002.32
2023-02-20T14:39:03.327Z,1002.31
2023-02-20T14:40:05.352Z,1002.27
2023-02-20T14:41:07.393Z,1002.32
2023-02-20T14:42:09.450Z,1002.37
2023-02-20T14:43:11.499Z,1002.39
2023-02-20T14:44:13.518Z,1002.33
2023-02-20T14:45:15.541Z,1002.24
2023-02-20T14:46:17.610Z,1002.23
2023-02-20T14:47:19.639Z,1002.19
2023-02-20T14:48:21.691Z,1002.19
2023-02-20T14:49:25.425Z,1002.27
2023-02-20T14:50:25.360Z,1002.27
2023-02-20T14:51:27.369Z,1002.30
2023-02-20T14:52:29.389Z,1002.35
2023-02-20T14:53:31.428Z,1002.26
2023-02-20T14:54:33.446Z,1002.25
2023-02-20T14:55:35.502Z,1002.24
2023-02-20T14:56:37.497Z,1002.20
2023-02-20T14:57:39.497Z,1002.29
2023-02-20T14:58:41.528Z,1002.34
2023-02-20T14:59:43.651Z,1002.31
2023-02-20T15:00:45.703Z,1002.36
2023-02-20T15:01:48.676Z,1002.40
2023-02-20T15:02:49.618Z,1002.41
2023-02-20T15:03:51.677Z,1002.36
2023-02-20T15:04:53.680Z,1002.37
2023-02-20T15:05:55.741Z,1002.39
2023-02-20T15:06:57.749Z,1002.41
2023-02-20T15:07:59.832Z,1002.38
2023-02-20T15:09:09.741Z,1002.42
2023-02-20T15:10:03.280Z,1002.51
2023-02-20T15:11:05.302Z,1002.47
2023-02-20T15:12:07.345Z,1002.52
2023-02-20T15:13:09.388Z,1002.47
2023-02-20T15:14:11.470Z,1002.51
2023-02-20T15:15:13.496Z,1002.55
2023-02-20T15:16:15.914Z,1002.53
2023-02-20T15:17:17.011Z,1002.57
2023-02-20T15:18:19.050Z,1002.70
2023-02-20T15:19:21.083Z,1002.69
2023-02-20T15:20:23.124Z,1002.68
2023-02-20T15:21:25.145Z,1002.70
2023-02-20T15:22:27.187Z,1002.73
2023-02-20T15:23:29.219Z,1002.75
2023-02-20T15:24:31.276Z,1002.74
2023-02-20T15:25:33.311Z,1002.82
2023-02-20T15:26:35.339Z,1002.83
2023-02-20T15:27:37.491Z,1002.82
2023-02-20T15:28:39.496Z,1002.79
2023-02-20T15:29:41.548Z,1002.77
2023-02-20T15:30:43.670Z,1002.76
2023-02-20T15:31:45.799Z,1002.81
2023-02-20T15:32:47.830Z,1002.80
2023-02-20T15:33:49.878Z,1002.88
2023-02-20T15:34:51.924Z,1002.78
2023-02-20T15:35:53.964Z,1002.84
2023-02-20T15:36:55.994Z,1002.77
2023-02-20T15:37:57.994Z,1002.77
2023-02-20T15:39:00.076Z,1002.77
2023-02-20T15:40:02.101Z,1002.83
2023-02-20T15:41:04.245Z,1002.83
2023-02-20T15:42:06.239Z,1002.85
2023-02-20T15:43:18.728Z,1002.87
2023-02-20T15:44:09.665Z,1002.91
2023-02-20T15:45:11.713Z,1002.91
2023-02-20T15:46:13.975Z,1002.88
2023-02-20T15:47:15.102Z,1002.93
2023-02-20T15:48:17.151Z,1002.89
2023-02-20T15:49:20.908Z,1002.90
2023-02-20T15:50:20.954Z,1002.92
2023-02-20T15:51:22.963Z,1002.96
2023-02-20T15:52:24.996Z,1003.00
2023-02-20T15:53:27.057Z,1002.98
2023-02-20T15:54:29.134Z,1003.02
2023-02-20T15:55:31.134Z,1003.04
2023-02-20T15:56:33.182Z,1003.02
2023-02-20T15:57:35.204Z,1003.06
2023-02-20T15:58:37.252Z,1003.05
2023-02-20T15:59:39.262Z,1003.03
2023-02-20T16:00:41.312Z,1003.06
2023-02-20T16:01:43.461Z,1003.11
2023-02-20T16:02:45.656Z,1003.05
2023-02-20T16:03:53.273Z,1003.08
2023-02-20T16:04:49.131Z,1003.11
2023-02-20T16:05:51.207Z,1003.17
2023-02-20T16:06:53.232Z,1003.14
2023-02-20T16:07:55.283Z,1003.14
2023-02-20T16:08:57.344Z,1003.10
2023-02-20T16:09:59.350Z,1003.09
2023-02-20T16:11:01.449Z,1003.03
2023-02-20T16:12:03.468Z,1003.06
2023-02-20T16:13:05.486Z,1003.12
2023-02-20T16:14:07.511Z,1003.06
2023-02-20T16:15:09.545Z,1003.03
2023-02-20T16:16:18.409Z,1002.93
2023-02-20T16:17:13.076Z,1002.93
2023-02-20T16:18:15.082Z,1002.96
2023-02-20T16:19:17.111Z,1002.96
2023-02-20T16:20:19.182Z,1002.94
2023-02-20T16:21:21.269Z,1002.91
2023-02-20T16:22:23.312Z,1002.88
2023-02-20T16:23:25.362Z,1002.82
2023-02-20T16:24:27.412Z,1002.81
2023-02-20T16:25:29.426Z,1002.88
2023-02-20T16:26:31.468Z,1002.85
2023-02-20T16:27:33.549Z,1002.88
2023-02-20T16:28:35.593Z,1002.91
2023-02-20T16:29:37.602Z,1002.97
2023-02-20T16:30:39.688Z,1002.92
2023-02-20T16:31:41.809Z,1002.94
2023-02-20T16:32:42.804Z,1002.97
2023-02-20T16:33:44.849Z,1002.98
2023-02-20T16:34:46.888Z,1002.97
2023-02-20T16:35:48.907Z,1002.97
2023-02-20T16:38:55.026Z,1003.07
2023-02-20T16:39:57.041Z,1003.06
2023-02-20T16:40:59.078Z,1003.05
